SPHI/CIX METAR and TAF weather

Enter ICAO airport designator
Station Type Date Time Source
SPHI METAR 2019/07/17 12:00 UTC NOAA

SPHI 171200Z 17008KT 8000 OVC009 17/15 Q1014 RMK BR BIRD HAZARD RWY 19/01 TN.16.4 PP000


Station Type Date Time Source
SPHI Decoded METAR 2019/07/17 12:00 UTC NOAA

Chiclayo, Peru (SPHI) 06-47S 079-50W 34M
Jul 17, 2019 - 08:00 AM EDT / 2019.07.17 1200 UTC
Wind: from the S (170 degrees) at 9 MPH (8 KT):0
Visibility: 4 mile(s):0
Sky conditions: overcast
Temperature: 62 F (17 C)
Dew Point: 59 F (15 C)
Relative Humidity: 88%
Pressure (altimeter): 29.94 in. Hg (1014 hPa)
ob: SPHI 171200Z 17008KT 8000 OVC009 17/15 Q1014 RMK BR BIRD HAZARD RWY 19/01 TN.16.4 PP000
cycle: 12

Station Type Date Time Source
SPHI TAF 2019/07/17 12:33 UTC NOAA

TAF SPHI 171110Z 1712/1812 17010KT 9999 OVC008 TX23/1719Z TN16/1811Z
FM171500 17016KT CAVOK
FM180000 18014KT 9999 BKN010

Example: see airport list